sensor_id;sensor_type;location;lat;lon;timestamp;P1;durP1;ratioP1;P2;durP2;ratioP2
69783;SDS011;57054;51.978;4.498;2023-03-11T00:00:35;1.05;;;0.55;;
69783;SDS011;57054;51.978;4.498;2023-03-11T00:03:03;0.35;;;0.20;;
69783;SDS011;57054;51.978;4.498;2023-03-11T00:05:31;0.47;;;0.30;;
69783;SDS011;57054;51.978;4.498;2023-03-11T00:07:58;2.97;;;0.50;;
69783;SDS011;57054;51.978;4.498;2023-03-11T00:10:29;1.95;;;0.40;;
69783;SDS011;57054;51.978;4.498;2023-03-11T00:12:59;2.63;;;0.55;;
69783;SDS011;57054;51.978;4.498;2023-03-11T00:17:51;0.45;;;0.35;;
69783;SDS011;57054;51.978;4.498;2023-03-11T00:20:18;0.88;;;0.45;;
69783;SDS011;57054;51.978;4.498;2023-03-11T00:22:54;0.90;;;0.30;;
69783;SDS011;57054;51.978;4.498;2023-03-11T00:25:20;0.63;;;0.40;;
69783;SDS011;57054;51.978;4.498;2023-03-11T00:27:47;0.60;;;0.30;;
69783;SDS011;57054;51.978;4.498;2023-03-11T00:30:13;0.90;;;0.32;;
69783;SDS011;57054;51.978;4.498;2023-03-11T00:32:40;2.13;;;0.35;;
69783;SDS011;57054;51.978;4.498;2023-03-11T00:35:05;0.52;;;0.25;;
69783;SDS011;57054;51.978;4.498;2023-03-11T00:37:31;0.88;;;0.38;;
69783;SDS011;57054;51.978;4.498;2023-03-11T00:39:57;0.50;;;0.30;;
69783;SDS011;57054;51.978;4.498;2023-03-11T00:42:23;1.15;;;0.32;;
69783;SDS011;57054;51.978;4.498;2023-03-11T00:44:49;0.20;;;0.20;;
69783;SDS011;57054;51.978;4.498;2023-03-11T00:47:14;0.77;;;0.10;;
69783;SDS011;57054;51.978;4.498;2023-03-11T00:49:39;1.98;;;0.73;;
69783;SDS011;57054;51.978;4.498;2023-03-11T00:52:05;1.08;;;0.30;;
69783;SDS011;57054;51.978;4.498;2023-03-11T00:54:30;1.27;;;0.40;;
69783;SDS011;57054;51.978;4.498;2023-03-11T00:56:56;0.77;;;0.40;;
69783;SDS011;57054;51.978;4.498;2023-03-11T00:59:21;1.70;;;0.32;;
69783;SDS011;57054;51.978;4.498;2023-03-11T01:01:47;0.20;;;0.20;;
69783;SDS011;57054;51.978;4.498;2023-03-11T01:04:12;1.85;;;0.30;;
69783;SDS011;57054;51.978;4.498;2023-03-11T01:06:38;2.72;;;0.40;;
69783;SDS011;57054;51.978;4.498;2023-03-11T01:09:03;1.92;;;0.50;;
69783;SDS011;57054;51.978;4.498;2023-03-11T01:11:29;0.63;;;0.40;;
69783;SDS011;57054;51.978;4.498;2023-03-11T01:13:55;1.00;;;0.47;;
69783;SDS011;57054;51.978;4.498;2023-03-11T01:16:21;0.70;;;0.40;;
69783;SDS011;57054;51.978;4.498;2023-03-11T01:18:47;1.33;;;0.40;;
69783;SDS011;57054;51.978;4.498;2023-03-11T01:21:12;0.20;;;0.20;;
69783;SDS011;57054;51.978;4.498;2023-03-11T01:23:38;0.45;;;0.43;;
69783;SDS011;57054;51.978;4.498;2023-03-11T01:26:04;1.55;;;0.20;;
69783;SDS011;57054;51.978;4.498;2023-03-11T01:28:29;2.03;;;0.50;;
69783;SDS011;57054;51.978;4.498;2023-03-11T01:30:55;1.85;;;0.43;;
69783;SDS011;57054;51.978;4.498;2023-03-11T01:33:20;0.30;;;0.30;;
69783;SDS011;57054;51.978;4.498;2023-03-11T01:35:46;0.40;;;0.40;;
69783;SDS011;57054;51.978;4.498;2023-03-11T01:38:13;1.42;;;0.30;;
69783;SDS011;57054;51.978;4.498;2023-03-11T01:40:40;0.73;;;0.40;;
69783;SDS011;57054;51.978;4.498;2023-03-11T01:48:45;0.50;;;0.43;;
69783;SDS011;57054;51.978;4.498;2023-03-11T01:51:13;0.20;;;0.20;;
69783;SDS011;57054;51.978;4.498;2023-03-11T01:53:41;1.30;;;0.50;;
69783;SDS011;57054;51.978;4.498;2023-03-11T01:56:07;2.30;;;0.75;;
69783;SDS011;57054;51.978;4.498;2023-03-11T01:58:35;2.25;;;0.40;;
69783;SDS011;57054;51.978;4.498;2023-03-11T02:03:30;1.30;;;0.38;;
69783;SDS011;57054;51.978;4.498;2023-03-11T02:06:02;1.35;;;0.30;;
69783;SDS011;57054;51.978;4.498;2023-03-11T02:08:31;1.38;;;0.40;;
69783;SDS011;57054;51.978;4.498;2023-03-11T02:10:58;0.43;;;0.43;;
69783;SDS011;57054;51.978;4.498;2023-03-11T02:13:26;2.75;;;0.30;;
69783;SDS011;57054;51.978;4.498;2023-03-11T02:15:52;0.40;;;0.32;;
69783;SDS011;57054;51.978;4.498;2023-03-11T02:18:18;2.15;;;0.40;;
69783;SDS011;57054;51.978;4.498;2023-03-11T02:21:29;0.40;;;0.25;;
69783;SDS011;57054;51.978;4.498;2023-03-11T02:23:58;0.50;;;0.50;;
69783;SDS011;57054;51.978;4.498;2023-03-11T02:26:32;0.45;;;0.22;;
69783;SDS011;57054;51.978;4.498;2023-03-11T02:29:05;0.90;;;0.30;;
69783;SDS011;57054;51.978;4.498;2023-03-11T02:31:33;0.30;;;0.30;;
69783;SDS011;57054;51.978;4.498;2023-03-11T02:34:02;2.05;;;0.30;;
69783;SDS011;57054;51.978;4.498;2023-03-11T02:36:31;1.00;;;0.30;;
69783;SDS011;57054;51.978;4.498;2023-03-11T02:38:58;0.28;;;0.28;;
69783;SDS011;57054;51.978;4.498;2023-03-11T02:41:23;0.25;;;0.22;;
69783;SDS011;57054;51.978;4.498;2023-03-11T02:43:48;0.30;;;0.30;;
69783;SDS011;57054;51.978;4.498;2023-03-11T02:46:14;1.00;;;0.40;;
69783;SDS011;57054;51.978;4.498;2023-03-11T02:48:41;0.93;;;0.32;;
69783;SDS011;57054;51.978;4.498;2023-03-11T02:51:07;0.77;;;0.40;;
69783;SDS011;57054;51.978;4.498;2023-03-11T02:53:35;1.55;;;0.40;;
69783;SDS011;57054;51.978;4.498;2023-03-11T02:56:05;1.25;;;0.60;;
69783;SDS011;57054;51.978;4.498;2023-03-11T02:58:31;0.68;;;0.47;;
69783;SDS011;57054;51.978;4.498;2023-03-11T03:00:56;0.63;;;0.40;;
69783;SDS011;57054;51.978;4.498;2023-03-11T03:03:22;0.60;;;0.40;;
69783;SDS011;57054;51.978;4.498;2023-03-11T03:05:47;2.25;;;0.40;;
69783;SDS011;57054;51.978;4.498;2023-03-11T03:08:13;0.88;;;0.45;;
69783;SDS011;57054;51.978;4.498;2023-03-11T03:10:38;0.35;;;0.35;;
69783;SDS011;57054;51.978;4.498;2023-03-11T03:13:03;0.20;;;0.20;;
69783;SDS011;57054;51.978;4.498;2023-03-11T03:15:29;1.05;;;0.40;;
69783;SDS011;57054;51.978;4.498;2023-03-11T03:17:54;1.15;;;0.40;;
69783;SDS011;57054;51.978;4.498;2023-03-11T03:20:20;1.10;;;0.30;;
69783;SDS011;57054;51.978;4.498;2023-03-11T03:22:46;0.57;;;0.40;;
69783;SDS011;57054;51.978;4.498;2023-03-11T03:25:12;0.32;;;0.32;;
69783;SDS011;57054;51.978;4.498;2023-03-11T03:27:38;0.40;;;0.40;;
69783;SDS011;57054;51.978;4.498;2023-03-11T03:30:04;2.05;;;0.50;;
69783;SDS011;57054;51.978;4.498;2023-03-11T03:32:30;0.45;;;0.40;;
69783;SDS011;57054;51.978;4.498;2023-03-11T03:34:56;0.95;;;0.55;;
69783;SDS011;57054;51.978;4.498;2023-03-11T03:37:23;1.27;;;0.47;;
69783;SDS011;57054;51.978;4.498;2023-03-11T03:39:53;0.50;;;0.45;;
69783;SDS011;57054;51.978;4.498;2023-03-11T03:42:18;0.45;;;0.45;;
69783;SDS011;57054;51.978;4.498;2023-03-11T03:44:44;1.35;;;0.63;;
69783;SDS011;57054;51.978;4.498;2023-03-11T03:47:10;0.30;;;0.30;;
69783;SDS011;57054;51.978;4.498;2023-03-11T03:49:36;0.40;;;0.40;;
69783;SDS011;57054;51.978;4.498;2023-03-11T03:52:03;3.40;;;0.60;;
69783;SDS011;57054;51.978;4.498;2023-03-11T03:54:29;0.50;;;0.50;;
69783;SDS011;57054;51.978;4.498;2023-03-11T03:56:55;0.40;;;0.38;;
69783;SDS011;57054;51.978;4.498;2023-03-11T03:59:20;1.27;;;0.50;;
69783;SDS011;57054;51.978;4.498;2023-03-11T04:01:45;0.50;;;0.40;;
69783;SDS011;57054;51.978;4.498;2023-03-11T04:04:11;1.75;;;0.95;;
69783;SDS011;57054;51.978;4.498;2023-03-11T04:06:36;0.95;;;0.40;;
69783;SDS011;57054;51.978;4.498;2023-03-11T04:09:02;0.47;;;0.32;;
69783;SDS011;57054;51.978;4.498;2023-03-11T04:11:27;0.65;;;0.63;;
69783;SDS011;57054;51.978;4.498;2023-03-11T04:13:53;3.00;;;0.60;;
69783;SDS011;57054;51.978;4.498;2023-03-11T04:16:19;0.40;;;0.40;;
69783;SDS011;57054;51.978;4.498;2023-03-11T04:18:47;0.55;;;0.50;;
69783;SDS011;57054;51.978;4.498;2023-03-11T04:21:12;0.70;;;0.50;;
69783;SDS011;57054;51.978;4.498;2023-03-11T04:23:38;0.95;;;0.50;;
69783;SDS011;57054;51.978;4.498;2023-03-11T04:26:04;1.33;;;0.50;;
69783;SDS011;57054;51.978;4.498;2023-03-11T04:28:29;0.52;;;0.52;;
69783;SDS011;57054;51.978;4.498;2023-03-11T04:30:55;0.75;;;0.50;;
69783;SDS011;57054;51.978;4.498;2023-03-11T04:33:20;0.85;;;0.73;;
69783;SDS011;57054;51.978;4.498;2023-03-11T04:35:46;0.68;;;0.40;;
69783;SDS011;57054;51.978;4.498;2023-03-11T04:38:11;2.65;;;0.85;;
69783;SDS011;57054;51.978;4.498;2023-03-11T04:40:37;1.70;;;0.60;;
69783;SDS011;57054;51.978;4.498;2023-03-11T04:43:02;2.17;;;0.82;;
69783;SDS011;57054;51.978;4.498;2023-03-11T04:45:28;0.50;;;0.40;;
69783;SDS011;57054;51.978;4.498;2023-03-11T04:47:54;1.52;;;0.40;;
69783;SDS011;57054;51.978;4.498;2023-03-11T04:50:19;0.65;;;0.45;;
69783;SDS011;57054;51.978;4.498;2023-03-11T04:52:45;0.80;;;0.60;;
69783;SDS011;57054;51.978;4.498;2023-03-11T04:55:11;0.98;;;0.55;;
69783;SDS011;57054;51.978;4.498;2023-03-11T04:57:38;2.00;;;0.52;;
69783;SDS011;57054;51.978;4.498;2023-03-11T05:00:07;1.30;;;0.47;;
69783;SDS011;57054;51.978;4.498;2023-03-11T05:02:35;2.03;;;0.63;;
69783;SDS011;57054;51.978;4.498;2023-03-11T05:05:01;0.50;;;0.50;;
69783;SDS011;57054;51.978;4.498;2023-03-11T05:07:27;3.33;;;0.88;;
69783;SDS011;57054;51.978;4.498;2023-03-11T05:09:53;1.23;;;0.60;;
69783;SDS011;57054;51.978;4.498;2023-03-11T05:12:18;0.70;;;0.70;;
69783;SDS011;57054;51.978;4.498;2023-03-11T05:14:43;0.60;;;0.60;;
69783;SDS011;57054;51.978;4.498;2023-03-11T05:17:09;0.60;;;0.57;;
69783;SDS011;57054;51.978;4.498;2023-03-11T05:19:36;0.73;;;0.60;;
69783;SDS011;57054;51.978;4.498;2023-03-11T05:22:02;0.88;;;0.77;;
69783;SDS011;57054;51.978;4.498;2023-03-11T05:24:29;3.50;;;0.73;;
69783;SDS011;57054;51.978;4.498;2023-03-11T05:26:55;1.27;;;0.65;;
69783;SDS011;57054;51.978;4.498;2023-03-11T05:29:21;0.90;;;0.50;;
69783;SDS011;57054;51.978;4.498;2023-03-11T05:31:47;1.42;;;0.60;;
69783;SDS011;57054;51.978;4.498;2023-03-11T05:34:13;0.63;;;0.57;;
69783;SDS011;57054;51.978;4.498;2023-03-11T05:36:38;1.83;;;0.70;;
69783;SDS011;57054;51.978;4.498;2023-03-11T05:39:04;0.65;;;0.60;;
69783;SDS011;57054;51.978;4.498;2023-03-11T05:41:29;0.50;;;0.50;;
69783;SDS011;57054;51.978;4.498;2023-03-11T05:43:55;0.77;;;0.52;;
69783;SDS011;57054;51.978;4.498;2023-03-11T05:46:20;0.73;;;0.50;;
69783;SDS011;57054;51.978;4.498;2023-03-11T05:48:45;0.50;;;0.50;;
69783;SDS011;57054;51.978;4.498;2023-03-11T05:51:11;0.43;;;0.43;;
69783;SDS011;57054;51.978;4.498;2023-03-11T05:53:37;0.70;;;0.65;;
69783;SDS011;57054;51.978;4.498;2023-03-11T05:56:02;0.65;;;0.63;;
69783;SDS011;57054;51.978;4.498;2023-03-11T05:58:29;2.92;;;0.93;;
69783;SDS011;57054;51.978;4.498;2023-03-11T06:00:56;1.33;;;0.90;;
69783;SDS011;57054;51.978;4.498;2023-03-11T06:03:23;0.80;;;0.80;;
69783;SDS011;57054;51.978;4.498;2023-03-11T06:05:48;1.05;;;0.63;;
69783;SDS011;57054;51.978;4.498;2023-03-11T06:08:15;0.82;;;0.73;;
69783;SDS011;57054;51.978;4.498;2023-03-11T06:10:41;0.85;;;0.70;;
69783;SDS011;57054;51.978;4.498;2023-03-11T06:13:07;1.67;;;0.60;;
69783;SDS011;57054;51.978;4.498;2023-03-11T06:15:33;1.55;;;0.70;;
69783;SDS011;57054;51.978;4.498;2023-03-11T06:18:00;1.35;;;0.80;;
69783;SDS011;57054;51.978;4.498;2023-03-11T06:20:26;0.88;;;0.70;;
69783;SDS011;57054;51.978;4.498;2023-03-11T06:22:51;0.95;;;0.57;;
69783;SDS011;57054;51.978;4.498;2023-03-11T06:25:17;1.92;;;0.80;;
69783;SDS011;57054;51.978;4.498;2023-03-11T06:27:43;1.20;;;0.82;;
69783;SDS011;57054;51.978;4.498;2023-03-11T06:30:09;0.90;;;0.70;;
69783;SDS011;57054;51.978;4.498;2023-03-11T06:32:35;1.52;;;0.70;;
69783;SDS011;57054;51.978;4.498;2023-03-11T06:35:01;2.63;;;0.90;;
69783;SDS011;57054;51.978;4.498;2023-03-11T06:37:29;1.50;;;0.93;;
69783;SDS011;57054;51.978;4.498;2023-03-11T06:39:55;1.77;;;0.85;;
69783;SDS011;57054;51.978;4.498;2023-03-11T06:42:21;1.58;;;0.75;;
69783;SDS011;57054;51.978;4.498;2023-03-11T06:44:49;1.50;;;1.00;;
69783;SDS011;57054;51.978;4.498;2023-03-11T06:47:15;1.30;;;1.15;;
69783;SDS011;57054;51.978;4.498;2023-03-11T06:49:40;0.80;;;0.80;;
69783;SDS011;57054;51.978;4.498;2023-03-11T06:52:07;2.72;;;0.90;;
69783;SDS011;57054;51.978;4.498;2023-03-11T06:54:33;2.30;;;0.80;;
69783;SDS011;57054;51.978;4.498;2023-03-11T06:56:59;2.05;;;0.90;;
69783;SDS011;57054;51.978;4.498;2023-03-11T06:59:25;0.88;;;0.82;;
69783;SDS011;57054;51.978;4.498;2023-03-11T07:01:52;0.90;;;0.90;;
69783;SDS011;57054;51.978;4.498;2023-03-11T07:04:17;1.08;;;0.90;;
69783;SDS011;57054;51.978;4.498;2023-03-11T07:06:43;2.03;;;1.38;;
69783;SDS011;57054;51.978;4.498;2023-03-11T07:09:08;1.00;;;1.00;;
69783;SDS011;57054;51.978;4.498;2023-03-11T07:11:34;1.00;;;0.95;;
69783;SDS011;57054;51.978;4.498;2023-03-11T07:13:59;1.38;;;1.10;;
69783;SDS011;57054;51.978;4.498;2023-03-11T07:16:25;2.90;;;1.35;;
69783;SDS011;57054;51.978;4.498;2023-03-11T07:18:56;2.43;;;1.03;;
69783;SDS011;57054;51.978;4.498;2023-03-11T07:21:25;1.30;;;1.20;;
69783;SDS011;57054;51.978;4.498;2023-03-11T07:23:52;6.05;;;1.60;;
69783;SDS011;57054;51.978;4.498;2023-03-11T07:26:21;2.95;;;1.20;;
69783;SDS011;57054;51.978;4.498;2023-03-11T07:28:47;2.28;;;1.40;;
69783;SDS011;57054;51.978;4.498;2023-03-11T07:31:21;1.33;;;1.20;;
69783;SDS011;57054;51.978;4.498;2023-03-11T07:33:51;2.03;;;1.42;;
69783;SDS011;57054;51.978;4.498;2023-03-11T07:36:18;1.50;;;1.40;;
69783;SDS011;57054;51.978;4.498;2023-03-11T07:38:45;3.15;;;1.80;;
69783;SDS011;57054;51.978;4.498;2023-03-11T07:41:11;1.75;;;1.35;;
69783;SDS011;57054;51.978;4.498;2023-03-11T07:43:38;1.85;;;1.70;;
69783;SDS011;57054;51.978;4.498;2023-03-11T07:48:36;1.88;;;1.65;;
69783;SDS011;57054;51.978;4.498;2023-03-11T07:51:06;1.83;;;1.60;;
69783;SDS011;57054;51.978;4.498;2023-03-11T07:53:35;2.42;;;1.70;;
69783;SDS011;57054;51.978;4.498;2023-03-11T07:56:00;4.75;;;1.77;;
69783;SDS011;57054;51.978;4.498;2023-03-11T07:58:26;2.78;;;2.00;;
69783;SDS011;57054;51.978;4.498;2023-03-11T08:00:52;2.75;;;1.77;;
69783;SDS011;57054;51.978;4.498;2023-03-11T08:03:19;2.25;;;2.05;;
69783;SDS011;57054;51.978;4.498;2023-03-11T08:05:44;2.03;;;1.85;;
69783;SDS011;57054;51.978;4.498;2023-03-11T08:08:10;3.08;;;1.92;;
69783;SDS011;57054;51.978;4.498;2023-03-11T08:10:36;2.00;;;1.73;;
69783;SDS011;57054;51.978;4.498;2023-03-11T08:13:01;2.10;;;1.90;;
69783;SDS011;57054;51.978;4.498;2023-03-11T08:15:27;5.35;;;2.33;;
69783;SDS011;57054;51.978;4.498;2023-03-11T08:17:52;4.15;;;1.90;;
69783;SDS011;57054;51.978;4.498;2023-03-11T08:20:18;3.75;;;2.20;;
69783;SDS011;57054;51.978;4.498;2023-03-11T08:22:43;3.78;;;2.60;;
69783;SDS011;57054;51.978;4.498;2023-03-11T08:25:09;3.67;;;2.50;;
69783;SDS011;57054;51.978;4.498;2023-03-11T08:27:34;3.40;;;1.98;;
69783;SDS011;57054;51.978;4.498;2023-03-11T08:29:59;3.33;;;2.60;;
69783;SDS011;57054;51.978;4.498;2023-03-11T08:32:25;2.72;;;2.40;;
69783;SDS011;57054;51.978;4.498;2023-03-11T08:34:50;2.38;;;2.17;;
69783;SDS011;57054;51.978;4.498;2023-03-11T08:37:16;2.95;;;2.08;;
69783;SDS011;57054;51.978;4.498;2023-03-11T08:39:41;2.20;;;2.00;;
69783;SDS011;57054;51.978;4.498;2023-03-11T08:42:06;3.00;;;1.98;;
69783;SDS011;57054;51.978;4.498;2023-03-11T08:44:32;2.17;;;1.98;;
69783;SDS011;57054;51.978;4.498;2023-03-11T08:46:57;2.88;;;2.22;;
69783;SDS011;57054;51.978;4.498;2023-03-11T08:49:23;7.72;;;2.17;;
69783;SDS011;57054;51.978;4.498;2023-03-11T08:51:48;7.82;;;2.00;;
69783;SDS011;57054;51.978;4.498;2023-03-11T08:54:13;9.45;;;1.58;;
69783;SDS011;57054;51.978;4.498;2023-03-11T08:56:39;7.57;;;1.48;;
69783;SDS011;57054;51.978;4.498;2023-03-11T08:59:04;2.85;;;1.20;;
69783;SDS011;57054;51.978;4.498;2023-03-11T09:01:31;1.23;;;1.10;;
69783;SDS011;57054;51.978;4.498;2023-03-11T09:03:56;2.67;;;1.65;;
69783;SDS011;57054;51.978;4.498;2023-03-11T09:06:22;2.15;;;1.23;;
69783;SDS011;57054;51.978;4.498;2023-03-11T09:08:48;5.07;;;0.85;;
69783;SDS011;57054;51.978;4.498;2023-03-11T09:11:14;1.20;;;0.65;;
69783;SDS011;57054;51.978;4.498;2023-03-11T09:13:41;1.10;;;0.77;;
69783;SDS011;57054;51.978;4.498;2023-03-11T09:16:25;1.25;;;0.60;;
69783;SDS011;57054;51.978;4.498;2023-03-11T09:18:50;10.48;;;1.10;;
69783;SDS011;57054;51.978;4.498;2023-03-11T09:21:16;6.28;;;0.93;;
69783;SDS011;57054;51.978;4.498;2023-03-11T09:23:41;1.60;;;0.70;;
69783;SDS011;57054;51.978;4.498;2023-03-11T09:26:07;3.08;;;0.82;;
69783;SDS011;57054;51.978;4.498;2023-03-11T09:28:32;0.77;;;0.65;;
69783;SDS011;57054;51.978;4.498;2023-03-11T09:30:58;1.00;;;0.70;;
69783;SDS011;57054;51.978;4.498;2023-03-11T09:33:23;1.70;;;0.65;;
69783;SDS011;57054;51.978;4.498;2023-03-11T09:35:48;1.15;;;0.50;;
69783;SDS011;57054;51.978;4.498;2023-03-11T09:38:14;0.95;;;0.47;;
69783;SDS011;57054;51.978;4.498;2023-03-11T09:40:48;0.77;;;0.50;;
69783;SDS011;57054;51.978;4.498;2023-03-11T09:51:45;6.43;;;1.05;;
69783;SDS011;57054;51.978;4.498;2023-03-11T09:54:17;1.80;;;0.60;;
69783;SDS011;57054;51.978;4.498;2023-03-11T09:56:43;5.35;;;0.88;;
69783;SDS011;57054;51.978;4.498;2023-03-11T09:59:29;5.75;;;0.63;;
69783;SDS011;57054;51.978;4.498;2023-03-11T10:01:56;2.13;;;0.63;;
69783;SDS011;57054;51.978;4.498;2023-03-11T10:04:25;1.42;;;0.38;;
69783;SDS011;57054;51.978;4.498;2023-03-11T10:06:55;1.50;;;0.38;;
69783;SDS011;57054;51.978;4.498;2023-03-11T10:09:25;3.58;;;0.60;;
69783;SDS011;57054;51.978;4.498;2023-03-11T10:12:05;2.92;;;0.60;;
69783;SDS011;57054;51.978;4.498;2023-03-11T10:15:00;2.53;;;0.40;;
69783;SDS011;57054;51.978;4.498;2023-03-11T10:18:02;1.80;;;0.60;;
69783;SDS011;57054;51.978;4.498;2023-03-11T10:26:32;5.15;;;0.80;;
69783;SDS011;57054;51.978;4.498;2023-03-11T10:29:06;2.75;;;0.65;;
69783;SDS011;57054;51.978;4.498;2023-03-11T10:31:53;3.88;;;0.50;;
69783;SDS011;57054;51.978;4.498;2023-03-11T10:34:53;3.55;;;0.60;;
69783;SDS011;57054;51.978;4.498;2023-03-11T10:37:24;5.50;;;0.77;;
69783;SDS011;57054;51.978;4.498;2023-03-11T10:39:53;4.68;;;0.77;;
69783;SDS011;57054;51.978;4.498;2023-03-11T10:42:23;5.78;;;0.60;;
69783;SDS011;57054;51.978;4.498;2023-03-11T10:44:52;3.65;;;0.82;;
69783;SDS011;57054;51.978;4.498;2023-03-11T10:47:19;4.57;;;0.88;;
69783;SDS011;57054;51.978;4.498;2023-03-11T10:52:12;1.42;;;0.47;;
69783;SDS011;57054;51.978;4.498;2023-03-11T10:54:39;1.45;;;0.63;;
69783;SDS011;57054;51.978;4.498;2023-03-11T10:57:23;3.03;;;0.73;;
69783;SDS011;57054;51.978;4.498;2023-03-11T10:59:51;5.43;;;0.70;;
69783;SDS011;57054;51.978;4.498;2023-03-11T11:04:46;1.38;;;0.52;;
69783;SDS011;57054;51.978;4.498;2023-03-11T11:12:36;1.30;;;0.60;;
69783;SDS011;57054;51.978;4.498;2023-03-11T11:17:48;1.48;;;0.63;;
69783;SDS011;57054;51.978;4.498;2023-03-11T11:20:17;3.90;;;0.60;;
69783;SDS011;57054;51.978;4.498;2023-03-11T11:23:00;1.50;;;0.65;;
69783;SDS011;57054;51.978;4.498;2023-03-11T11:25:34;3.75;;;0.70;;
69783;SDS011;57054;51.978;4.498;2023-03-11T11:28:23;3.67;;;1.52;;
69783;SDS011;57054;51.978;4.498;2023-03-11T11:30:51;7.28;;;1.10;;
69783;SDS011;57054;51.978;4.498;2023-03-11T11:33:31;5.00;;;1.30;;
69783;SDS011;57054;51.978;4.498;2023-03-11T11:36:02;4.15;;;1.10;;
69783;SDS011;57054;51.978;4.498;2023-03-11T11:38:29;4.50;;;1.13;;
69783;SDS011;57054;51.978;4.498;2023-03-11T11:40:57;3.83;;;1.00;;
69783;SDS011;57054;51.978;4.498;2023-03-11T11:45:59;7.22;;;1.20;;
69783;SDS011;57054;51.978;4.498;2023-03-11T11:48:34;2.33;;;1.25;;
69783;SDS011;57054;51.978;4.498;2023-03-11T11:51:29;3.08;;;1.23;;
69783;SDS011;57054;51.978;4.498;2023-03-11T11:54:00;3.75;;;1.10;;
69783;SDS011;57054;51.978;4.498;2023-03-11T11:56:49;5.78;;;1.23;;
69783;SDS011;57054;51.978;4.498;2023-03-11T11:59:15;2.08;;;1.25;;
69783;SDS011;57054;51.978;4.498;2023-03-11T12:12:57;4.25;;;0.90;;
69783;SDS011;57054;51.978;4.498;2023-03-11T12:15:32;9.20;;;1.15;;
69783;SDS011;57054;51.978;4.498;2023-03-11T12:18:10;3.60;;;1.00;;
69783;SDS011;57054;51.978;4.498;2023-03-11T12:20:43;6.38;;;1.30;;
69783;SDS011;57054;51.978;4.498;2023-03-11T12:26:18;3.55;;;1.05;;
69783;SDS011;57054;51.978;4.498;2023-03-11T12:28:52;4.38;;;1.02;;
69783;SDS011;57054;51.978;4.498;2023-03-11T12:31:22;5.40;;;0.88;;
69783;SDS011;57054;51.978;4.498;2023-03-11T12:33:55;1.15;;;0.80;;
69783;SDS011;57054;51.978;4.498;2023-03-11T12:39:03;1.75;;;0.90;;
69783;SDS011;57054;51.978;4.498;2023-03-11T12:41:32;1.52;;;0.80;;
69783;SDS011;57054;51.978;4.498;2023-03-11T12:49:25;2.37;;;1.00;;
69783;SDS011;57054;51.978;4.498;2023-03-11T12:52:04;1.40;;;0.90;;
69783;SDS011;57054;51.978;4.498;2023-03-11T13:08:44;3.55;;;0.90;;
69783;SDS011;57054;51.978;4.498;2023-03-11T13:16:56;5.03;;;0.80;;
69783;SDS011;57054;51.978;4.498;2023-03-11T13:19:49;2.40;;;0.80;;
69783;SDS011;57054;51.978;4.498;2023-03-11T13:22:38;3.00;;;0.77;;
69783;SDS011;57054;51.978;4.498;2023-03-11T13:28:00;1.70;;;0.80;;
69783;SDS011;57054;51.978;4.498;2023-03-11T13:30:45;2.63;;;0.85;;
69783;SDS011;57054;51.978;4.498;2023-03-11T13:36:14;1.98;;;0.95;;
69783;SDS011;57054;51.978;4.498;2023-03-11T13:41:54;3.00;;;0.73;;
69783;SDS011;57054;51.978;4.498;2023-03-11T13:46:49;1.05;;;0.70;;
69783;SDS011;57054;51.978;4.498;2023-03-11T13:49:23;0.80;;;0.60;;
69783;SDS011;57054;51.978;4.498;2023-03-11T13:51:54;2.28;;;0.70;;
69783;SDS011;57054;51.978;4.498;2023-03-11T13:57:15;0.52;;;0.50;;
69783;SDS011;57054;51.978;4.498;2023-03-11T13:59:51;2.60;;;0.43;;
69783;SDS011;57054;51.978;4.498;2023-03-11T14:02:18;3.33;;;0.82;;
69783;SDS011;57054;51.978;4.498;2023-03-11T14:04:47;1.15;;;0.77;;
69783;SDS011;57054;51.978;4.498;2023-03-11T14:07:26;3.47;;;0.60;;
69783;SDS011;57054;51.978;4.498;2023-03-11T14:12:35;2.33;;;0.70;;
69783;SDS011;57054;51.978;4.498;2023-03-11T14:15:01;5.93;;;0.68;;
69783;SDS011;57054;51.978;4.498;2023-03-11T14:17:30;6.18;;;0.80;;
69783;SDS011;57054;51.978;4.498;2023-03-11T14:22:44;4.82;;;0.65;;
69783;SDS011;57054;51.978;4.498;2023-03-11T14:25:14;6.63;;;0.90;;
69783;SDS011;57054;51.978;4.498;2023-03-11T14:27:51;1.23;;;0.50;;
69783;SDS011;57054;51.978;4.498;2023-03-11T14:30:23;2.20;;;0.50;;
69783;SDS011;57054;51.978;4.498;2023-03-11T14:32:55;1.75;;;0.52;;
69783;SDS011;57054;51.978;4.498;2023-03-11T14:35:22;2.95;;;0.40;;
69783;SDS011;57054;51.978;4.498;2023-03-11T14:37:48;0.52;;;0.52;;
69783;SDS011;57054;51.978;4.498;2023-03-11T14:40:24;4.68;;;0.70;;
69783;SDS011;57054;51.978;4.498;2023-03-11T14:42:53;1.42;;;0.60;;
69783;SDS011;57054;51.978;4.498;2023-03-11T14:45:22;1.00;;;0.45;;
69783;SDS011;57054;51.978;4.498;2023-03-11T14:50:28;3.10;;;0.65;;
69783;SDS011;57054;51.978;4.498;2023-03-11T14:52:57;2.80;;;0.60;;
69783;SDS011;57054;51.978;4.498;2023-03-11T14:55:33;3.83;;;0.80;;
69783;SDS011;57054;51.978;4.498;2023-03-11T15:00:48;1.63;;;0.50;;
69783;SDS011;57054;51.978;4.498;2023-03-11T15:03:22;3.13;;;0.68;;
69783;SDS011;57054;51.978;4.498;2023-03-11T15:08:26;2.83;;;0.55;;
69783;SDS011;57054;51.978;4.498;2023-03-11T15:13:39;0.57;;;0.43;;
69783;SDS011;57054;51.978;4.498;2023-03-11T15:16:07;0.32;;;0.30;;
69783;SDS011;57054;51.978;4.498;2023-03-11T15:18:46;2.05;;;0.30;;
69783;SDS011;57054;51.978;4.498;2023-03-11T15:21:13;4.80;;;0.43;;
69783;SDS011;57054;51.978;4.498;2023-03-11T15:23:46;1.60;;;0.45;;
69783;SDS011;57054;51.978;4.498;2023-03-11T15:26:18;0.88;;;0.52;;
69783;SDS011;57054;51.978;4.498;2023-03-11T15:28:51;0.57;;;0.40;;
69783;SDS011;57054;51.978;4.498;2023-03-11T15:33:46;0.90;;;0.52;;
69783;SDS011;57054;51.978;4.498;2023-03-11T15:36:32;3.50;;;0.75;;
69783;SDS011;57054;51.978;4.498;2023-03-11T15:39:10;1.38;;;0.40;;
69783;SDS011;57054;51.978;4.498;2023-03-11T15:41:36;8.27;;;0.60;;
69783;SDS011;57054;51.978;4.498;2023-03-11T15:44:01;5.35;;;0.68;;
69783;SDS011;57054;51.978;4.498;2023-03-11T15:46:31;4.25;;;0.63;;
69783;SDS011;57054;51.978;4.498;2023-03-11T15:48:58;1.90;;;0.50;;
69783;SDS011;57054;51.978;4.498;2023-03-11T15:51:23;2.25;;;0.45;;
69783;SDS011;57054;51.978;4.498;2023-03-11T15:53:49;4.10;;;1.15;;
69783;SDS011;57054;51.978;4.498;2023-03-11T15:56:17;2.15;;;0.50;;
69783;SDS011;57054;51.978;4.498;2023-03-11T15:58:48;0.75;;;0.50;;
69783;SDS011;57054;51.978;4.498;2023-03-11T16:01:13;2.05;;;0.57;;
69783;SDS011;57054;51.978;4.498;2023-03-11T16:03:38;2.95;;;0.65;;
69783;SDS011;57054;51.978;4.498;2023-03-11T16:06:04;2.00;;;0.52;;
69783;SDS011;57054;51.978;4.498;2023-03-11T16:08:29;2.95;;;0.40;;
69783;SDS011;57054;51.978;4.498;2023-03-11T16:10:55;2.13;;;0.45;;
69783;SDS011;57054;51.978;4.498;2023-03-11T16:13:22;1.65;;;0.40;;
69783;SDS011;57054;51.978;4.498;2023-03-11T16:15:47;3.33;;;0.70;;
69783;SDS011;57054;51.978;4.498;2023-03-11T16:18:13;3.25;;;1.00;;
69783;SDS011;57054;51.978;4.498;2023-03-11T16:20:39;1.05;;;0.80;;
69783;SDS011;57054;51.978;4.498;2023-03-11T16:23:11;5.00;;;0.80;;
69783;SDS011;57054;51.978;4.498;2023-03-11T16:25:43;3.30;;;0.55;;
69783;SDS011;57054;51.978;4.498;2023-03-11T16:28:13;1.92;;;0.50;;
69783;SDS011;57054;51.978;4.498;2023-03-11T16:30:39;2.58;;;0.60;;
69783;SDS011;57054;51.978;4.498;2023-03-11T16:33:05;0.70;;;0.70;;
69783;SDS011;57054;51.978;4.498;2023-03-11T16:35:31;0.75;;;0.55;;
69783;SDS011;57054;51.978;4.498;2023-03-11T16:37:56;4.18;;;0.52;;
69783;SDS011;57054;51.978;4.498;2023-03-11T16:40:23;0.77;;;0.50;;
69783;SDS011;57054;51.978;4.498;2023-03-11T16:42:54;1.13;;;0.47;;
69783;SDS011;57054;51.978;4.498;2023-03-11T16:45:24;2.97;;;0.65;;
69783;SDS011;57054;51.978;4.498;2023-03-11T16:47:49;2.67;;;0.73;;
69783;SDS011;57054;51.978;4.498;2023-03-11T16:50:15;1.48;;;0.40;;
69783;SDS011;57054;51.978;4.498;2023-03-11T16:52:40;0.68;;;0.45;;